Terminal Aerodrome Forecast
Issued by NWS

Home | Current Version | Previous Version | Text Only | Print | Product List | Glossary On
Versions: 1 2 3 4 5 6 7 8 9 10 11 12 13 14 15 16 17 18 19 20 21 22
000
FTUS42 KJAX 281825 AAA
TAFCRG
TAF AMD
KCRG 281825Z 2818/2918 04011G20KT P6SM VCSH SCT030 SCT060 BKN200
     FM282300 09006KT P6SM FEW040 SCT250
     FM290200 VRB03KT P6SM SCT250
      TEMPO 2910/2912 5SM BR
     FM291400 34005KT P6SM SCT030=

USA.gov is the U.S. government's official web portal to all federal, state and local government web resources and services.